Time;durP1;ratioP1;P1;durP2;ratioP2;P2;SDS_P1;SDS_P2;PMS_P1;PMS_P2;Temp;Humidity;BMP_temperature;BMP_pressure;BME280_temperature;BME280_humidity;BME280_pressure;Samples;Min_cycle;Max_cycle;Signal;HPM_P1;HPM_P2
2023/05/01 00:00:48;;;;;;;2.17;1.60;;;13.70;99.90;;;;;;5031343;28;20034;-50
2023/05/01 00:03:14;;;;;;;1.88;1.77;;;13.70;99.90;;;;;;5031192;28;20018;-46
2023/05/01 00:05:40;;;;;;;1.63;1.25;;;13.70;99.90;;;;;;5031014;28;20371;-49
2023/05/01 00:08:06;;;;;;;2.33;1.70;;;13.70;99.90;;;;;;5030995;28;20105;-48
2023/05/01 00:10:35;;;;;;;4.90;2.40;;;13.60;99.90;;;;;;5031427;28;20029;-50
2023/05/01 00:13:00;;;;;;;1.92;1.73;;;13.60;99.90;;;;;;5031205;28;20036;-47
2023/05/01 00:15:26;;;;;;;3.72;1.63;;;13.60;99.90;;;;;;5032486;28;20034;-50
2023/05/01 00:17:52;;;;;;;4.40;1.83;;;13.60;99.90;;;;;;5035014;28;20033;-54
2023/05/01 00:20:18;;;;;;;1.98;1.55;;;13.50;99.90;;;;;;5034743;28;20072;-49
2023/05/01 00:22:44;;;;;;;2.10;1.95;;;13.40;99.90;;;;;;5035276;28;20070;-53
2023/05/01 00:25:09;;;;;;;1.65;1.55;;;13.40;99.90;;;;;;5034591;28;20378;-50
2023/05/01 00:27:35;;;;;;;5.47;2.25;;;13.40;99.90;;;;;;5034443;28;20021;-47
2023/05/01 00:30:00;;;;;;;2.40;1.88;;;13.30;99.90;;;;;;5034527;28;20427;-51
2023/05/01 00:32:26;;;;;;;3.33;1.67;;;13.30;99.90;;;;;;5034419;28;20034;-51
2023/05/01 00:34:52;;;;;;;3.08;1.90;;;13.20;99.90;;;;;;5034493;28;20021;-48
2023/05/01 00:37:17;;;;;;;2.97;2.10;;;13.20;99.90;;;;;;5034357;28;20441;-49
2023/05/01 00:39:43;;;;;;;7.85;2.22;;;13.10;99.90;;;;;;5034250;28;20105;-49
2023/05/01 00:42:08;;;;;;;3.80;2.25;;;13.10;99.90;;;;;;5034709;28;20025;-51
2023/05/01 00:44:34;;;;;;;3.42;2.05;;;13.10;99.90;;;;;;5034799;28;20088;-48
2023/05/01 00:47:01;;;;;;;3.80;1.85;;;13.00;99.90;;;;;;5033991;28;20091;-47
2023/05/01 00:49:27;;;;;;;3.83;1.50;;;13.00;99.90;;;;;;5034265;28;20056;-46
2023/05/01 00:51:53;;;;;;;3.85;1.58;;;13.00;99.90;;;;;;5034006;28;20037;-46
2023/05/01 00:54:19;;;;;;;1.85;1.65;;;13.00;99.90;;;;;;5034162;28;20025;-50
2023/05/01 00:56:46;;;;;;;2.58;1.63;;;12.90;99.90;;;;;;5034170;28;20569;-51
2023/05/01 00:59:13;;;;;;;4.03;2.10;;;12.90;99.90;;;;;;5033993;28;20134;-51
2023/05/01 01:01:40;;;;;;;3.03;2.15;;;12.80;99.90;;;;;;5033950;28;20029;-51
2023/05/01 01:04:07;;;;;;;4.57;1.90;;;12.80;99.90;;;;;;5034220;28;20030;-47
2023/05/01 01:06:41;;;;;;;4.97;1.85;;;12.70;99.90;;;;;;5034087;28;20029;-48
2023/05/01 01:09:36;;;;;;;2.28;1.90;;;12.70;99.90;;;;;;5033733;28;20029;-49
2023/05/01 01:12:13;;;;;;;6.57;2.42;;;12.70;99.90;;;;;;5033896;28;20049;-51
2023/05/01 01:14:52;;;;;;;3.67;1.90;;;12.70;99.90;;;;;;5033767;28;20111;-52
2023/05/01 01:17:46;;;;;;;2.05;1.75;;;12.60;99.90;;;;;;5033802;28;20029;-50
2023/05/01 01:20:27;;;;;;;3.42;2.22;;;12.60;99.90;;;;;;5033618;28;20017;-50
2023/05/01 01:23:05;;;;;;;2.92;1.67;;;12.60;99.90;;;;;;5033559;28;20033;-51
2023/05/01 01:26:00;;;;;;;6.30;2.22;;;12.50;99.90;;;;;;5015736;28;20029;-48
2023/05/01 01:29:09;;;;;;;6.68;2.45;;;12.50;99.90;;;;;;5033011;28;20033;-47
2023/05/01 01:32:04;;;;;;;2.60;1.60;;;12.40;99.90;;;;;;5015614;28;20116;-52
2023/05/01 01:35:04;;;;;;;3.20;1.83;;;12.40;99.90;;;;;;5026383;28;20034;-49
2023/05/01 01:37:44;;;;;;;5.88;2.28;;;12.30;99.90;;;;;;5022256;28;20271;-48
2023/05/01 01:40:12;;;;;;;2.58;2.20;;;12.20;99.90;;;;;;5033097;28;20029;-49
2023/05/01 01:43:02;;;;;;;2.72;2.47;;;12.20;99.90;;;;;;5033104;28;20013;-47
2023/05/01 01:45:37;;;;;;;6.07;2.60;;;12.10;99.90;;;;;;5033177;28;20025;-48
2023/05/01 01:48:06;;;;;;;3.40;2.40;;;12.10;99.90;;;;;;5033376;28;20024;-47
2023/05/01 01:50:35;;;;;;;4.78;2.13;;;12.00;99.90;;;;;;5033056;28;20033;-53
2023/05/01 01:53:03;;;;;;;5.32;2.20;;;12.00;99.90;;;;;;5033093;28;20022;-48
2023/05/01 01:55:30;;;;;;;5.50;2.78;;;12.00;99.90;;;;;;5032820;28;20040;-46
2023/05/01 01:57:58;;;;;;;5.80;2.10;;;12.00;99.90;;;;;;5032916;28;20080;-52
2023/05/01 02:00:24;;;;;;;2.20;1.88;;;12.00;99.90;;;;;;5015055;28;20087;-49
2023/05/01 02:02:51;;;;;;;4.15;2.45;;;12.00;99.90;;;;;;5032908;28;20529;-48
2023/05/01 02:05:18;;;;;;;8.32;2.30;;;11.90;99.90;;;;;;5032755;28;20029;-47
2023/05/01 02:07:48;;;;;;;6.45;2.65;;;11.90;99.90;;;;;;5032426;28;20057;-49
2023/05/01 02:10:14;;;;;;;5.80;2.22;;;11.80;99.90;;;;;;5032637;28;20087;-48
2023/05/01 02:12:43;;;;;;;3.60;1.88;;;11.80;99.90;;;;;;5032562;28;20489;-48
2023/05/01 02:15:09;;;;;;;5.55;2.60;;;11.80;99.90;;;;;;5032598;28;20064;-50
2023/05/01 02:17:36;;;;;;;6.65;2.58;;;11.70;99.90;;;;;;5032242;28;20037;-48
2023/05/01 02:20:05;;;;;;;7.15;2.55;;;11.70;99.90;;;;;;5032409;28;20028;-46
2023/05/01 02:22:31;;;;;;;5.10;2.60;;;11.70;99.90;;;;;;5032393;28;20506;-48
2023/05/01 02:24:59;;;;;;;7.18;2.40;;;11.60;99.90;;;;;;5032449;28;20034;-47
2023/05/01 02:27:35;;;;;;;3.80;2.45;;;11.60;99.90;;;;;;5032285;28;20025;-49
2023/05/01 02:30:00;;;;;;;3.83;2.25;;;11.60;99.90;;;;;;5032386;28;20485;-47
2023/05/01 02:32:27;;;;;;;4.43;2.60;;;11.50;99.90;;;;;;5032115;28;20042;-48
2023/05/01 02:34:53;;;;;;;4.97;2.10;;;11.50;99.90;;;;;;5032167;28;20017;-45
2023/05/01 02:37:19;;;;;;;6.13;2.58;;;11.40;99.90;;;;;;5014473;28;20026;-51
2023/05/01 02:39:45;;;;;;;7.57;2.70;;;11.40;99.90;;;;;;5031125;28;20076;-51
2023/05/01 02:42:14;;;;;;;2.78;2.58;;;11.40;99.90;;;;;;5032034;28;20540;-49
2023/05/01 02:45:10;;;;;;;2.60;2.17;;;11.30;99.90;;;;;;5032043;28;20044;-49
2023/05/01 02:47:42;;;;;;;2.85;2.58;;;11.30;99.90;;;;;;5031865;28;20030;-50
2023/05/01 02:50:10;;;;;;;4.18;2.30;;;11.30;99.90;;;;;;5030650;28;20053;-49
2023/05/01 02:52:36;;;;;;;4.70;2.47;;;11.20;99.90;;;;;;5031810;28;20105;-52
2023/05/01 02:55:02;;;;;;;5.72;2.72;;;11.20;99.90;;;;;;5031916;28;20540;-49
2023/05/01 02:57:28;;;;;;;4.95;2.58;;;11.20;99.90;;;;;;5031569;28;20109;-51
2023/05/01 02:59:53;;;;;;;6.00;2.28;;;11.20;99.90;;;;;;5031631;28;20373;-50
2023/05/01 03:02:19;;;;;;;4.82;2.35;;;11.10;99.90;;;;;;5031609;28;20025;-49
2023/05/01 03:04:44;;;;;;;4.40;2.33;;;11.10;99.90;;;;;;5031548;28;20022;-49
2023/05/01 03:07:10;;;;;;;5.63;2.85;;;11.10;99.90;;;;;;5031342;28;20045;-53
2023/05/01 03:09:35;;;;;;;3.97;3.35;;;11.00;99.90;;;;;;5031178;28;20040;-47
2023/05/01 03:12:01;;;;;;;6.00;2.83;;;11.00;99.90;;;;;;5031136;28;20018;-50
2023/05/01 03:14:27;;;;;;;3.17;2.45;;;11.00;99.90;;;;;;5031504;28;20033;-48
2023/05/01 03:16:53;;;;;;;7.25;2.75;;;11.00;99.90;;;;;;5031248;28;20025;-50
2023/05/01 03:19:19;;;;;;;3.53;2.88;;;11.00;99.90;;;;;;5031100;28;20109;-48
2023/05/01 03:21:44;;;;;;;4.18;2.97;;;11.00;99.90;;;;;;5030977;28;20176;-52
2023/05/01 03:24:10;;;;;;;2.90;2.60;;;11.00;99.90;;;;;;5031099;28;20155;-47
2023/05/01 03:26:36;;;;;;;6.40;3.25;;;10.90;99.90;;;;;;5030929;28;20104;-49
2023/05/01 03:29:01;;;;;;;6.82;2.95;;;10.90;99.90;;;;;;5031168;28;20119;-49
2023/05/01 03:31:27;;;;;;;4.22;2.53;;;10.90;99.90;;;;;;5031090;28;20160;-47
2023/05/01 03:33:53;;;;;;;3.00;2.72;;;10.90;99.90;;;;;;5031119;28;20085;-44
2023/05/01 03:36:20;;;;;;;6.35;3.10;;;10.90;99.90;;;;;;5030949;28;20021;-46
2023/05/01 03:38:46;;;;;;;4.25;2.92;;;10.90;99.90;;;;;;5031045;28;20472;-47
2023/05/01 03:41:11;;;;;;;9.88;2.90;;;10.90;99.90;;;;;;5031013;28;20106;-47
2023/05/01 03:43:37;;;;;;;3.28;2.63;;;10.90;99.90;;;;;;5030922;28;20021;-48
2023/05/01 03:46:02;;;;;;;4.95;2.85;;;10.90;99.90;;;;;;5030942;28;20030;-46
2023/05/01 03:48:28;;;;;;;6.18;2.60;;;10.80;99.90;;;;;;5030948;28;20393;-47
2023/05/01 03:50:53;;;;;;;3.65;3.03;;;10.90;99.90;;;;;;5033393;28;20030;-50
2023/05/01 03:53:19;;;;;;;7.70;2.83;;;10.90;99.90;;;;;;5035154;28;20069;-47
2023/05/01 03:55:44;;;;;;;5.43;2.53;;;10.90;99.90;;;;;;5034757;28;20565;-49
2023/05/01 03:58:10;;;;;;;4.45;2.63;;;10.90;99.90;;;;;;5035071;28;20040;-51
2023/05/01 04:00:36;;;;;;;5.97;2.75;;;10.90;99.90;;;;;;5016818;28;20511;-48
2023/05/01 04:03:03;;;;;;;5.28;3.60;;;10.80;99.90;;;;;;5035066;28;20397;-48
2023/05/01 04:05:29;;;;;;;6.90;3.22;;;10.80;99.90;;;;;;5034747;28;20079;-48
2023/05/01 04:07:55;;;;;;;5.30;3.00;;;10.80;99.90;;;;;;5034639;28;20030;-48
2023/05/01 04:10:20;;;;;;;7.30;3.30;;;10.80;99.90;;;;;;5034606;28;20481;-49
2023/05/01 04:12:46;;;;;;;5.95;3.17;;;10.80;99.90;;;;;;5034719;28;20459;-53
2023/05/01 04:15:11;;;;;;;5.90;3.97;;;10.80;99.90;;;;;;5034532;28;20607;-49
2023/05/01 04:17:37;;;;;;;5.90;3.50;;;10.80;99.90;;;;;;5035137;28;20037;-46
2023/05/01 04:20:05;;;;;;;3.00;2.55;;;10.90;99.90;;;;;;5034415;28;20033;-51
2023/05/01 04:22:30;;;;;;;5.82;3.00;;;10.80;99.90;;;;;;5034388;28;20025;-48
2023/05/01 04:24:56;;;;;;;9.32;3.03;;;10.80;99.90;;;;;;5034418;28;20406;-52
2023/05/01 04:27:22;;;;;;;4.28;3.08;;;10.80;99.90;;;;;;5034485;28;20112;-47
2023/05/01 04:29:47;;;;;;;5.68;3.10;;;10.80;99.90;;;;;;5034299;28;20037;-50
2023/05/01 04:32:13;;;;;;;6.20;3.22;;;10.80;99.90;;;;;;5034186;28;20536;-49
2023/05/01 04:34:38;;;;;;;4.97;3.47;;;10.80;99.90;;;;;;5034319;28;20036;-52
2023/05/01 04:37:06;;;;;;;6.95;3.22;;;10.80;99.90;;;;;;5034278;28;20523;-47
2023/05/01 04:39:31;;;;;;;4.43;2.88;;;10.80;99.90;;;;;;5034183;28;20478;-52
2023/05/01 04:41:56;;;;;;;3.40;3.20;;;10.80;99.90;;;;;;5034073;28;20040;-49
2023/05/01 04:44:22;;;;;;;3.22;2.85;;;10.80;99.90;;;;;;5034146;28;20459;-51
2023/05/01 04:46:47;;;;;;;7.55;3.45;;;10.90;99.90;;;;;;5033837;28;20030;-51
2023/05/01 04:49:13;;;;;;;5.60;3.30;;;10.90;99.90;;;;;;5034066;28;20417;-47
2023/05/01 04:51:39;;;;;;;7.75;4.07;;;10.90;99.90;;;;;;5034036;28;20021;-47
2023/05/01 04:54:04;;;;;;;4.20;2.80;;;10.90;99.90;;;;;;5033917;28;20123;-49
2023/05/01 04:56:30;;;;;;;9.27;3.67;;;10.90;99.90;;;;;;5033829;28;20029;-48
2023/05/01 04:58:56;;;;;;;8.27;3.28;;;10.90;99.90;;;;;;5033720;28;20128;-51
2023/05/01 05:01:22;;;;;;;4.18;3.47;;;10.90;99.90;;;;;;5032826;28;20497;-49
2023/05/01 05:03:47;;;;;;;6.60;3.53;;;10.90;99.90;;;;;;5033586;28;20025;-47
2023/05/01 05:06:13;;;;;;;7.45;3.30;;;10.90;99.90;;;;;;5033587;28;20030;-47
2023/05/01 05:08:38;;;;;;;7.53;3.22;;;11.00;99.90;;;;;;5033627;28;20065;-47
2023/05/01 05:11:04;;;;;;;5.30;3.30;;;11.00;99.90;;;;;;5016016;28;20493;-47
2023/05/01 05:13:29;;;;;;;5.00;3.25;;;11.10;99.90;;;;;;5033491;28;20030;-47
2023/05/01 05:15:55;;;;;;;4.68;3.30;;;11.10;99.90;;;;;;5033522;28;20025;-51
2023/05/01 05:18:20;;;;;;;8.32;3.72;;;11.10;99.90;;;;;;5033631;28;20556;-47
2023/05/01 05:20:46;;;;;;;7.72;3.50;;;11.10;99.90;;;;;;5033331;28;20912;-50
2023/05/01 05:23:11;;;;;;;3.63;2.95;;;11.10;99.90;;;;;;5015629;28;20112;-52
2023/05/01 05:25:37;;;;;;;5.43;3.40;;;11.20;99.90;;;;;;5033377;28;20105;-47
2023/05/01 05:28:03;;;;;;;7.82;3.47;;;11.20;99.90;;;;;;5033354;28;20032;-49
2023/05/01 05:30:28;;;;;;;3.67;3.25;;;11.30;99.90;;;;;;5033813;28;20087;-47
2023/05/01 05:32:54;;;;;;;6.05;3.03;;;11.40;99.90;;;;;;5033215;28;20025;-47
2023/05/01 05:35:20;;;;;;;10.02;4.18;;;11.40;99.90;;;;;;5033238;28;20022;-49
2023/05/01 05:37:46;;;;;;;7.45;3.55;;;11.40;99.90;;;;;;5033116;28;20036;-53
2023/05/01 05:40:11;;;;;;;5.70;3.55;;;11.40;99.90;;;;;;5033192;28;20021;-50
2023/05/01 05:42:37;;;;;;;6.80;3.63;;;11.50;99.90;;;;;;5032852;28;20028;-50
2023/05/01 05:45:03;;;;;;;8.90;3.50;;;11.50;99.90;;;;;;5033110;28;20515;-47
2023/05/01 05:47:28;;;;;;;5.40;3.65;;;11.50;99.90;;;;;;5032939;28;20099;-51
2023/05/01 05:49:54;;;;;;;6.88;3.35;;;11.60;99.90;;;;;;5032767;28;20034;-50
2023/05/01 05:52:20;;;;;;;5.50;3.95;;;11.60;99.90;;;;;;5014995;28;20021;-51
2023/05/01 05:54:46;;;;;;;5.45;3.45;;;11.60;99.90;;;;;;5033307;28;20575;-49
2023/05/01 05:57:11;;;;;;;3.78;3.42;;;11.70;99.90;;;;;;5032553;28;20029;-46
2023/05/01 05:59:37;;;;;;;5.80;3.40;;;11.70;99.90;;;;;;5032559;28;20108;-53
2023/05/01 06:02:03;;;;;;;7.03;3.60;;;11.80;99.90;;;;;;5032494;28;20138;-49
2023/05/01 06:04:29;;;;;;;5.75;3.92;;;12.00;99.90;;;;;;5032822;28;20029;-51
2023/05/01 06:06:54;;;;;;;6.95;3.70;;;12.10;99.90;;;;;;5032423;28;20515;-49
2023/05/01 06:09:20;;;;;;;5.32;3.60;;;12.30;99.90;;;;;;5032245;28;20427;-48
2023/05/01 06:11:46;;;;;;;5.70;3.75;;;12.30;99.90;;;;;;5032284;28;20033;-50
2023/05/01 06:14:12;;;;;;;4.80;3.65;;;12.40;99.90;;;;;;5032274;28;20508;-49
2023/05/01 06:16:37;;;;;;;5.55;4.65;;;12.30;99.90;;;;;;5032130;28;20030;-49
2023/05/01 06:19:03;;;;;;;6.85;3.60;;;12.20;99.90;;;;;;5032641;28;20026;-52
2023/05/01 06:21:30;;;;;;;7.43;3.92;;;12.20;99.90;;;;;;5032010;28;20531;-49
2023/05/01 06:23:56;;;;;;;5.15;3.40;;;12.20;99.90;;;;;;5032425;28;20026;-47
2023/05/01 06:26:22;;;;;;;10.27;4.45;;;12.10;99.90;;;;;;5014408;28;20026;-47
2023/05/01 06:28:47;;;;;;;5.18;3.80;;;12.10;99.90;;;;;;5032331;28;20501;-47
2023/05/01 06:31:13;;;;;;;5.53;3.45;;;12.10;99.90;;;;;;5032108;28;20369;-47
2023/05/01 06:33:38;;;;;;;6.15;3.88;;;12.10;99.90;;;;;;5014289;28;20041;-50
2023/05/01 06:36:04;;;;;;;5.93;3.75;;;12.20;99.90;;;;;;5032040;28;20094;-51
2023/05/01 06:38:31;;;;;;;9.32;4.55;;;12.20;99.90;;;;;;5032123;28;20026;-51
2023/05/01 06:40:57;;;;;;;6.50;3.92;;;12.30;99.90;;;;;;5031986;28;20025;-49
2023/05/01 06:43:26;;;;;;;11.13;4.00;;;12.30;99.90;;;;;;5032214;28;20021;-47
2023/05/01 06:45:52;;;;;;;5.15;3.47;;;12.40;99.90;;;;;;5032094;28;20024;-50
2023/05/01 06:48:17;;;;;;;5.70;4.03;;;12.50;99.90;;;;;;5032143;28;20500;-49
2023/05/01 06:50:43;;;;;;;8.60;4.55;;;12.60;99.90;;;;;;5031916;28;20367;-51
2023/05/01 06:53:08;;;;;;;7.78;4.43;;;12.60;99.90;;;;;;5014226;28;20073;-50
2023/05/01 06:55:34;;;;;;;8.73;3.80;;;12.70;99.90;;;;;;5032095;28;20509;-47
2023/05/01 06:57:59;;;;;;;4.90;3.75;;;12.80;99.90;;;;;;5032697;28;20366;-49
2023/05/01 07:00:25;;;;;;;6.82;3.90;;;12.90;99.90;;;;;;5031943;28;20401;-47
2023/05/01 07:02:50;;;;;;;9.73;3.83;;;13.00;99.90;;;;;;5032269;28;20034;-49
2023/05/01 07:05:17;;;;;;;5.78;3.75;;;13.10;99.90;;;;;;5032228;28;20279;-48
2023/05/01 07:07:43;;;;;;;5.53;3.75;;;13.10;99.90;;;;;;5031720;28;20022;-48
2023/05/01 07:10:09;;;;;;;7.05;3.65;;;13.10;99.90;;;;;;5032066;28;20447;-49
2023/05/01 07:12:34;;;;;;;7.03;3.50;;;13.20;99.90;;;;;;5031830;28;20026;-48
2023/05/01 07:15:00;;;;;;;4.53;3.40;;;13.20;99.90;;;;;;5031721;28;20520;-48
2023/05/01 07:17:25;;;;;;;6.38;3.75;;;13.30;99.90;;;;;;5031610;28;20041;-51
2023/05/01 07:19:51;;;;;;;8.88;3.55;;;13.20;99.90;;;;;;5031430;28;20171;-50
2023/05/01 07:22:17;;;;;;;4.88;3.88;;;13.10;99.90;;;;;;5031506;28;20041;-50
2023/05/01 07:24:43;;;;;;;5.35;4.07;;;13.10;99.90;;;;;;5030991;28;20111;-49
2023/05/01 07:27:09;;;;;;;5.07;3.65;;;13.10;99.90;;;;;;5031667;28;20056;-47
2023/05/01 07:29:36;;;;;;;7.43;4.40;;;13.20;99.90;;;;;;5031313;28;20044;-54
2023/05/01 07:32:04;;;;;;;5.28;3.45;;;13.30;99.90;;;;;;5028548;28;20021;-54
2023/05/01 07:34:30;;;;;;;4.78;3.97;;;13.40;99.90;;;;;;5031341;28;20064;-57
2023/05/01 07:36:55;;;;;;;5.78;3.47;;;13.60;99.90;;;;;;5041699;28;20136;-50
2023/05/01 07:39:21;;;;;;;8.23;4.00;;;13.70;99.90;;;;;;5051461;28;20028;-51
2023/05/01 07:41:46;;;;;;;6.63;4.28;;;13.80;99.90;;;;;;5024170;28;20037;-48
2023/05/01 07:44:12;;;;;;;6.10;3.55;;;13.90;99.90;;;;;;4993971;28;20132;-52
2023/05/01 07:46:38;;;;;;;7.85;3.78;;;13.90;99.90;;;;;;5025450;28;20034;-56
2023/05/01 07:49:04;;;;;;;10.85;5.25;;;13.90;99.90;;;;;;5014773;28;20543;-48
2023/05/01 07:51:29;;;;;;;10.82;5.47;;;13.80;99.90;;;;;;5019508;28;20017;-49
2023/05/01 07:53:55;;;;;;;4.93;3.53;;;13.90;99.90;;;;;;5030395;28;20022;-50
2023/05/01 07:56:20;;;;;;;5.00;4.00;;;13.90;99.90;;;;;;5030621;28;20040;-49
2023/05/01 07:58:46;;;;;;;6.57;4.18;;;13.90;99.90;;;;;;5031517;28;20026;-53
2023/05/01 08:01:11;;;;;;;7.13;3.72;;;13.90;99.90;;;;;;5030899;28;20029;-52
2023/05/01 08:03:37;;;;;;;4.25;3.83;;;14.00;99.90;;;;;;5031079;28;20020;-54
2023/05/01 08:06:03;;;;;;;5.45;3.75;;;14.10;99.90;;;;;;5030819;28;20024;-55
2023/05/01 08:08:28;;;;;;;8.05;3.47;;;14.20;99.90;;;;;;5031314;28;20139;-53
2023/05/01 08:10:54;;;;;;;6.88;4.20;;;14.30;99.90;;;;;;5030888;28;20044;-50
2023/05/01 08:13:19;;;;;;;5.80;3.67;;;14.50;99.90;;;;;;5031706;28;20112;-54
2023/05/01 08:15:46;;;;;;;4.78;3.63;;;14.60;99.90;;;;;;5031011;28;20290;-55
2023/05/01 08:18:12;;;;;;;8.55;3.75;;;14.70;99.90;;;;;;5031214;28;20053;-49
2023/05/01 08:20:37;;;;;;;7.97;4.03;;;14.90;99.90;;;;;;5030556;28;20037;-55
2023/05/01 08:23:03;;;;;;;8.55;3.22;;;15.10;99.90;;;;;;5013630;28;20148;-54
2023/05/01 08:25:30;;;;;;;4.57;3.92;;;15.20;99.90;;;;;;5031133;28;20389;-52
2023/05/01 08:27:56;;;;;;;4.90;3.88;;;15.10;99.90;;;;;;5031147;28;20343;-49
2023/05/01 08:30:21;;;;;;;6.50;4.32;;;15.10;99.90;;;;;;5031059;28;20109;-51
2023/05/01 08:32:47;;;;;;;7.47;3.65;;;15.20;99.90;;;;;;5030969;28;20029;-49
2023/05/01 08:35:12;;;;;;;4.25;3.65;;;15.10;99.90;;;;;;5013117;28;20511;-50
2023/05/01 08:37:38;;;;;;;6.00;3.92;;;15.10;99.90;;;;;;5032309;28;20025;-47
2023/05/01 08:40:07;;;;;;;11.63;4.32;;;15.10;99.90;;;;;;5016845;28;20504;-49
2023/05/01 08:42:38;;;;;;;6.07;3.85;;;15.20;99.90;;;;;;5034583;28;20045;-48
2023/05/01 08:45:07;;;;;;;4.63;3.67;;;15.20;99.90;;;;;;5034324;28;20096;-46
2023/05/01 08:47:36;;;;;;;6.90;4.13;;;15.30;99.90;;;;;;5034660;28;20026;-49
2023/05/01 08:50:12;;;;;;;6.90;3.65;;;15.30;99.90;;;;;;5034254;28;20071;-49
2023/05/01 08:52:42;;;;;;;3.65;3.35;;;15.40;99.90;;;;;;5034445;28;20108;-50
2023/05/01 08:55:14;;;;;;;5.07;4.00;;;15.60;99.90;;;;;;5015945;28;20032;-48
2023/05/01 08:57:46;;;;;;;8.25;3.88;;;15.80;99.90;;;;;;5034591;28;20025;-49
2023/05/01 09:00:18;;;;;;;4.95;3.60;;;16.00;99.60;;;;;;5034404;28;20135;-48
2023/05/01 09:02:46;;;;;;;6.95;3.83;;;16.10;99.40;;;;;;5027436;28;20117;-51
2023/05/01 09:05:16;;;;;;;6.25;3.97;;;16.30;99.10;;;;;;5024754;28;20101;-50
2023/05/01 09:07:45;;;;;;;3.80;3.45;;;16.40;98.90;;;;;;5050791;28;20029;-50
2023/05/01 09:10:11;;;;;;;5.53;3.35;;;16.50;99.40;;;;;;5050562;28;20547;-49
2023/05/01 09:12:38;;;;;;;3.47;3.15;;;16.70;98.30;;;;;;5040686;28;20037;-49
2023/05/01 09:15:06;;;;;;;7.53;3.70;;;16.70;98.00;;;;;;5035992;28;20029;-54
2023/05/01 09:17:32;;;;;;;4.00;3.60;;;16.90;98.10;;;;;;5042764;28;20024;-49
2023/05/01 09:20:00;;;;;;;5.50;3.63;;;17.10;97.90;;;;;;5033312;28;20022;-56
2023/05/01 09:22:26;;;;;;;4.85;3.30;;;17.20;96.90;;;;;;5033655;28;20031;-49
2023/05/01 09:24:51;;;;;;;9.20;4.15;;;17.40;97.50;;;;;;5034028;28;20096;-50
2023/05/01 09:27:18;;;;;;;8.93;3.38;;;17.60;96.30;;;;;;5021451;28;20543;-47
2023/05/01 09:29:47;;;;;;;7.35;4.10;;;17.40;96.70;;;;;;5021054;28;20030;-47
2023/05/01 09:32:23;;;;;;;5.60;3.60;;;17.40;96.70;;;;;;5033498;28;20065;-51
2023/05/01 09:34:50;;;;;;;4.13;3.40;;;17.60;96.60;;;;;;5033734;28;20029;-49
2023/05/01 09:37:33;;;;;;;6.05;3.55;;;17.70;96.10;;;;;;5014954;28;20034;-53
2023/05/01 09:40:01;;;;;;;9.70;3.58;;;17.90;95.80;;;;;;5033162;28;20492;-47
2023/05/01 09:42:27;;;;;;;10.07;4.90;;;17.90;95.90;;;;;;5033304;28;20105;-49
2023/05/01 09:44:53;;;;;;;5.43;3.95;;;18.00;95.80;;;;;;5015205;28;20168;-52
2023/05/01 09:47:22;;;;;;;7.75;5.57;;;17.90;95.10;;;;;;5017755;28;20063;-50
2023/05/01 09:49:48;;;;;;;4.25;3.60;;;18.10;95.40;;;;;;5048552;28;20397;-48
2023/05/01 09:52:14;;;;;;;4.32;3.40;;;18.30;94.90;;;;;;5032673;28;20103;-46
2023/05/01 09:54:40;;;;;;;6.43;3.58;;;18.40;94.60;;;;;;5033198;28;20053;-49
2023/05/01 09:57:06;;;;;;;8.18;3.28;;;18.70;94.40;;;;;;5032966;28;20029;-52
2023/05/01 09:59:33;;;;;;;6.95;3.47;;;18.60;93.50;;;;;;5031674;28;20029;-51
2023/05/01 10:01:59;;;;;;;11.00;3.10;;;18.70;93.10;;;;;;5030077;28;20557;-51
2023/05/01 10:04:32;;;;;;;3.78;3.00;;;18.90;93.80;;;;;;5030715;28;20133;-53
2023/05/01 10:07:13;;;;;;;3.45;2.63;;;19.10;93.10;;;;;;5048192;28;20032;-50
2023/05/01 10:09:40;;;;;;;3.35;2.80;;;19.30;92.90;;;;;;5047266;28;20507;-45
2023/05/01 10:12:05;;;;;;;5.07;3.30;;;19.20;92.10;;;;;;5032851;28;20029;-46
2023/05/01 10:14:37;;;;;;;3.72;2.80;;;19.30;93.00;;;;;;5033369;28;20530;-47
2023/05/01 10:17:16;;;;;;;3.17;2.88;;;19.40;92.70;;;;;;5031152;28;20041;-47
2023/05/01 10:19:41;;;;;;;3.45;3.13;;;19.40;92.90;;;;;;5032049;28;20018;-47
2023/05/01 10:22:07;;;;;;;3.15;2.85;;;19.30;93.50;;;;;;5032162;28;20080;-48
2023/05/01 10:24:33;;;;;;;5.68;2.63;;;19.40;93.80;;;;;;5032378;28;20485;-48
2023/05/01 10:26:59;;;;;;;6.00;3.10;;;19.50;93.70;;;;;;5032903;28;20481;-51
2023/05/01 10:29:28;;;;;;;6.93;3.08;;;19.60;92.60;;;;;;5033784;28;20037;-48
2023/05/01 10:31:54;;;;;;;9.18;3.55;;;19.80;92.20;;;;;;5032544;28;20037;-48
2023/05/01 10:34:22;;;;;;;7.88;2.90;;;19.80;91.70;;;;;;5031845;28;20052;-52
2023/05/01 10:36:57;;;;;;;4.85;3.42;;;19.90;92.30;;;;;;5031875;28;20440;-48
2023/05/01 10:39:33;;;;;;;4.93;3.72;;;20.00;91.90;;;;;;5032161;28;20536;-51
2023/05/01 10:42:03;;;;;;;5.18;3.38;;;19.90;92.30;;;;;;5030986;28;20029;-52
2023/05/01 10:44:29;;;;;;;5.13;3.10;;;19.90;92.40;;;;;;5031654;28;20074;-50
2023/05/01 10:46:55;;;;;;;5.55;4.13;;;20.10;92.10;;;;;;5031796;28;20382;-49
2023/05/01 10:49:21;;;;;;;4.75;3.85;;;20.00;91.90;;;;;;5030779;28;20026;-48
2023/05/01 10:52:00;;;;;;;4.00;3.47;;;19.80;91.20;;;;;;5031343;28;20029;-51
2023/05/01 10:54:26;;;;;;;5.70;3.53;;;19.50;91.60;;;;;;5031924;28;20097;-54
2023/05/01 10:56:53;;;;;;;5.85;4.22;;;19.00;92.00;;;;;;5031303;28;20474;-49
2023/05/01 10:59:19;;;;;;;3.90;3.58;;;19.00;92.00;;;;;;5030548;28;20029;-49
2023/05/01 11:01:50;;;;;;;6.22;4.20;;;18.70;92.40;;;;;;5031448;28;20013;-47
2023/05/01 11:04:25;;;;;;;3.60;3.30;;;18.70;92.90;;;;;;5016623;28;20036;-51
2023/05/01 11:06:57;;;;;;;;;;;18.70;93.40;;;;;;5031694;28;20108;-46
2023/05/01 11:09:45;;;;;;;3.17;2.78;;;18.70;92.50;;;;;;5031189;28;19967;-46
2023/05/01 11:12:15;;;;;;;5.32;3.50;;;18.70;91.90;;;;;;5031310;28;20034;-52
2023/05/01 11:14:52;;;;;;;5.47;2.97;;;18.60;92.00;;;;;;5032003;28;20496;-51
2023/05/01 11:17:40;;;;;;;4.45;3.65;;;18.70;92.20;;;;;;5031694;28;20100;-50
2023/05/01 11:20:10;;;;;;;3.10;2.80;;;18.70;92.00;;;;;;5013351;28;20518;-49
2023/05/01 11:22:38;;;;;;;7.10;3.40;;;18.80;92.50;;;;;;5031433;28;20060;-47
2023/05/01 11:25:20;;;;;;;4.70;2.85;;;18.90;93.60;;;;;;5030911;28;20036;-47
2023/05/01 11:27:48;;;;;;;4.40;3.22;;;18.80;93.10;;;;;;5031716;28;20108;-49
2023/05/01 11:30:14;;;;;;;3.80;2.90;;;18.90;93.90;;;;;;5031227;28;20022;-48
2023/05/01 11:32:42;;;;;;;5.50;3.50;;;19.00;92.80;;;;;;5031780;28;20034;-51
2023/05/01 11:35:21;;;;;;;3.58;3.08;;;19.10;93.20;;;;;;5031474;28;20029;-47
2023/05/01 11:37:47;;;;;;;6.57;3.63;;;19.20;93.10;;;;;;5031151;28;20033;-50
2023/05/01 11:40:22;;;;;;;4.22;3.10;;;19.10;93.50;;;;;;5030968;28;20183;-49
2023/05/01 11:42:48;;;;;;;;;;;19.20;94.80;;;;;;5031720;28;20018;-48
2023/05/01 11:45:14;;;;;;;5.47;3.50;;;19.40;94.60;;;;;;5013900;28;19905;-48
2023/05/01 11:47:40;;;;;;;4.75;3.22;;;19.40;93.50;;;;;;5031171;28;20032;-47
2023/05/01 11:50:08;;;;;;;10.00;7.43;;;19.30;94.00;;;;;;5031098;28;20033;-49
2023/05/01 11:52:52;;;;;;;6.07;3.83;;;19.30;95.10;;;;;;5031041;28;20412;-46
2023/05/01 11:55:18;;;;;;;3.22;2.90;;;19.30;93.20;;;;;;5105959;22;20075;-45
2023/05/01 11:57:49;;;;;;;3.30;3.00;;;19.20;92.90;;;;;;5091320;28;20066;-49
2023/05/01 12:00:24;;;;;;;4.25;3.72;;;19.30;94.10;;;;;;5090486;28;20036;-46
2023/05/01 12:03:05;;;;;;;3.53;3.22;;;19.30;94.50;;;;;;5091126;28;20016;-48
2023/05/01 12:05:31;;;;;;;5.00;3.60;;;19.40;94.90;;;;;;5090901;28;20024;-51
2023/05/01 12:08:19;;;;;;;3.42;3.10;;;19.20;94.40;;;;;;5089626;28;20044;-44
2023/05/01 12:10:56;;;;;;;4.57;2.80;;;19.20;94.40;;;;;;5071380;28;20102;-46
2023/05/01 12:13:22;;;;;;;3.85;3.50;;;19.40;94.10;;;;;;5074967;28;20392;-46
2023/05/01 12:15:52;;;;;;;5.47;3.33;;;19.40;93.90;;;;;;5074664;28;20488;-43
2023/05/01 12:18:20;;;;;;;3.83;3.53;;;19.50;94.40;;;;;;5078217;28;20038;-44
2023/05/01 12:20:51;;;;;;;4.65;3.80;;;19.50;93.50;;;;;;5094789;28;20028;-45
2023/05/01 12:23:19;;;;;;;5.53;3.13;;;19.50;93.20;;;;;;5091199;28;20029;-51
2023/05/01 12:25:45;;;;;;;8.07;4.05;;;19.60;93.10;;;;;;5079219;28;20488;-45
2023/05/01 12:28:14;;;;;;;4.55;3.45;;;19.60;92.20;;;;;;5075066;28;20040;-47
2023/05/01 12:30:41;;;;;;;4.10;3.00;;;19.50;92.70;;;;;;5074380;28;20082;-48
2023/05/01 12:33:15;;;;;;;3.53;2.80;;;19.50;92.80;;;;;;5094358;28;20028;-48
2023/05/01 12:35:44;;;;;;;4.32;2.65;;;19.50;92.60;;;;;;5094529;28;20028;-50
2023/05/01 12:38:13;;;;;;;5.13;2.92;;;19.40;92.70;;;;;;5094579;28;20572;-51
2023/05/01 12:40:48;;;;;;;5.10;3.03;;;19.50;93.00;;;;;;5094237;28;20032;-48
2023/05/01 12:43:14;;;;;;;3.63;3.08;;;19.50;91.80;;;;;;5093876;28;20035;-51
2023/05/01 12:45:40;;;;;;;5.03;3.20;;;19.60;91.90;;;;;;5093616;28;20392;-50
2023/05/01 12:48:13;;;;;;;3.75;3.45;;;19.60;92.20;;;;;;5074259;28;20384;-49
2023/05/01 12:50:40;;;;;;;4.55;3.67;;;19.60;92.40;;;;;;5074204;28;20131;-48
2023/05/01 12:53:06;;;;;;;3.58;3.28;;;19.50;92.70;;;;;;5074292;28;20103;-49